createdAt,value
2017-10-05T00:01:09.371Z,9.30
2017-10-05T00:03:36.898Z,9.30
2017-10-05T00:06:04.462Z,9.30
2017-10-05T00:08:31.994Z,9.40
2017-10-05T00:11:00.316Z,9.40
2017-10-05T00:13:27.851Z,9.40
2017-10-05T00:15:56.174Z,9.40
2017-10-05T00:18:23.714Z,9.40
2017-10-05T00:20:52.034Z,9.30
2017-10-05T00:23:19.562Z,9.30
2017-10-05T00:25:47.126Z,9.30
2017-10-05T00:28:14.654Z,9.40
2017-10-05T00:30:42.190Z,9.40
2017-10-05T00:33:10.515Z,9.40
2017-10-05T00:35:38.048Z,9.40
2017-10-05T00:38:05.613Z,9.40
2017-10-05T00:40:33.151Z,9.40
2017-10-05T00:43:01.522Z,9.40
2017-10-05T00:45:29.811Z,9.30
2017-10-05T00:47:58.134Z,9.40
2017-10-05T00:50:25.663Z,9.40
2017-10-05T00:52:53.227Z,9.40
2017-10-05T00:55:20.762Z,9.30
2017-10-05T00:57:49.087Z,9.20
2017-10-05T01:00:16.615Z,9.20
2017-10-05T01:02:44.167Z,9.10
2017-10-05T01:05:12.461Z,9.10
2017-10-05T01:07:40.016Z,9.10
2017-10-05T01:10:07.550Z,9.10
2017-10-05T01:12:35.884Z,9.20
2017-10-05T01:15:03.410Z,9.20
2017-10-05T01:17:30.969Z,9.30
2017-10-05T01:19:58.505Z,9.30
2017-10-05T01:22:26.836Z,9.40
2017-10-05T01:24:54.376Z,9.40
2017-10-05T01:27:21.963Z,9.40
2017-10-05T01:29:49.496Z,9.50
2017-10-05T01:32:17.063Z,9.60
2017-10-05T01:34:44.587Z,9.60
2017-10-05T01:37:12.882Z,9.60
2017-10-05T01:39:40.442Z,9.50
2017-10-05T01:42:07.975Z,9.50
2017-10-05T01:44:35.536Z,9.50
2017-10-05T01:47:03.060Z,9.40
2017-10-05T01:49:30.620Z,9.40
2017-10-05T01:51:58.165Z,9.40
2017-10-05T01:54:25.715Z,9.40
2017-10-05T01:56:53.235Z,9.40
2017-10-05T01:59:20.792Z,9.40
2017-10-05T02:01:49.086Z,9.40
2017-10-05T02:04:17.416Z,9.40
2017-10-05T02:06:44.947Z,9.40
2017-10-05T02:09:12.492Z,9.40
2017-10-05T02:11:40.019Z,9.40
2017-10-05T02:14:07.566Z,9.40
2017-10-05T02:16:35.099Z,9.30
2017-10-05T02:19:02.660Z,9.30
2017-10-05T02:21:30.200Z,9.30
2017-10-05T02:23:57.764Z,9.30
2017-10-05T02:26:25.298Z,9.30
2017-10-05T02:28:53.622Z,9.30
2017-10-05T02:31:21.164Z,9.30
2017-10-05T02:33:48.724Z,9.30
2017-10-05T02:36:16.250Z,9.30
2017-10-05T02:38:44.550Z,9.20
2017-10-05T02:41:12.108Z,9.20
2017-10-05T02:43:39.634Z,9.20
2017-10-05T02:46:07.189Z,9.30
2017-10-05T02:48:34.727Z,9.20
2017-10-05T02:51:02.288Z,9.20
2017-10-05T02:53:29.826Z,9.20
2017-10-05T02:55:57.374Z,9.20
2017-10-05T02:58:24.898Z,9.20
2017-10-05T03:00:53.219Z,9.10
2017-10-05T03:03:21.022Z,9.10
2017-10-05T03:05:48.579Z,9.00
2017-10-05T03:08:16.111Z,8.90
2017-10-05T03:10:43.666Z,8.90
2017-10-05T03:13:11.189Z,8.80
2017-10-05T03:15:39.511Z,8.70
2017-10-05T03:18:07.038Z,8.70
2017-10-05T03:20:34.594Z,8.70
2017-10-05T03:23:02.889Z,8.70
2017-10-05T03:25:30.444Z,8.70
2017-10-05T03:27:57.983Z,8.70
2017-10-05T03:30:26.304Z,8.60
2017-10-05T03:32:53.837Z,8.60
2017-10-05T03:35:21.402Z,8.70
2017-10-05T03:37:48.939Z,8.70
2017-10-05T03:40:17.279Z,8.80
2017-10-05T03:42:44.809Z,8.70
2017-10-05T03:45:12.396Z,8.70
2017-10-05T03:47:39.956Z,8.70
2017-10-05T03:50:07.487Z,8.70
2017-10-05T03:52:35.048Z,8.70
2017-10-05T03:55:02.575Z,8.60
2017-10-05T03:57:30.899Z,8.70
2017-10-05T03:59:58.423Z,8.60
2017-10-05T04:02:25.999Z,8.70
2017-10-05T04:04:53.535Z,8.70
2017-10-05T04:07:21.863Z,8.70
2017-10-05T04:09:49.394Z,8.70
2017-10-05T04:12:16.943Z,8.80
2017-10-05T04:14:44.474Z,8.70
2017-10-05T04:17:12.035Z,8.80
2017-10-05T04:19:40.340Z,8.70
2017-10-05T04:22:07.926Z,8.70
2017-10-05T04:24:35.486Z,8.70
2017-10-05T04:27:03.037Z,8.80
2017-10-05T04:29:30.568Z,8.80
2017-10-05T04:31:58.882Z,8.80
2017-10-05T04:34:26.426Z,8.80
2017-10-05T04:36:53.975Z,8.80
2017-10-05T04:39:21.517Z,8.70
2017-10-05T04:41:49.873Z,8.70
2017-10-05T04:44:17.423Z,8.60
2017-10-05T04:46:45.830Z,8.60
2017-10-05T04:49:13.414Z,8.70
2017-10-05T04:51:40.948Z,8.70
2017-10-05T04:54:09.274Z,8.70
2017-10-05T04:56:36.817Z,8.70
2017-10-05T04:59:04.374Z,8.70
2017-10-05T05:01:31.912Z,8.70
2017-10-05T05:04:00.243Z,8.60
2017-10-05T05:06:27.775Z,8.60
2017-10-05T05:08:55.323Z,8.60
2017-10-05T05:11:22.853Z,8.50
2017-10-05T05:13:50.408Z,8.50
2017-10-05T05:16:17.943Z,8.50
2017-10-05T05:18:45.492Z,8.60
2017-10-05T05:21:13.031Z,8.60
2017-10-05T05:23:40.601Z,8.60
2017-10-05T05:26:08.166Z,8.50
2017-10-05T05:28:35.728Z,8.50
2017-10-05T05:31:03.282Z,8.60
2017-10-05T05:33:30.842Z,8.60
2017-10-05T05:35:58.370Z,8.60
2017-10-05T05:38:26.696Z,8.50
2017-10-05T05:40:54.230Z,8.50
2017-10-05T05:43:21.758Z,8.50
2017-10-05T05:45:50.089Z,8.50
2017-10-05T05:48:17.619Z,8.50
2017-10-05T05:50:45.184Z,8.50
2017-10-05T05:53:12.739Z,8.50
2017-10-05T05:55:40.298Z,8.40
2017-10-05T05:58:07.830Z,8.50
2017-10-05T06:00:35.390Z,8.50
2017-10-05T06:03:02.919Z,8.50
2017-10-05T06:05:30.477Z,8.50
2017-10-05T06:07:58.015Z,8.60
2017-10-05T06:10:25.571Z,8.50
2017-10-05T06:12:53.108Z,8.50
2017-10-05T06:15:20.676Z,8.50
2017-10-05T06:17:48.215Z,8.50
2017-10-05T06:20:16.540Z,8.60
2017-10-05T06:22:44.076Z,8.50
2017-10-05T06:25:11.642Z,8.60
2017-10-05T06:27:39.192Z,8.60
2017-10-05T06:30:06.747Z,8.70
2017-10-05T06:32:34.283Z,8.80
2017-10-05T06:35:01.838Z,8.90
2017-10-05T06:37:29.366Z,8.80
2017-10-05T06:39:56.924Z,8.90
2017-10-05T06:42:24.460Z,9.00
2017-10-05T06:44:51.986Z,9.10
2017-10-05T06:47:20.323Z,9.30
2017-10-05T06:49:47.850Z,9.30
2017-10-05T06:52:15.404Z,9.40
2017-10-05T06:54:42.936Z,9.50
2017-10-05T06:57:11.270Z,9.70
2017-10-05T06:59:38.800Z,9.60
2017-10-05T07:02:06.368Z,9.70
2017-10-05T07:04:33.902Z,9.80
2017-10-05T07:07:02.234Z,10.00
2017-10-05T07:09:29.762Z,9.90
2017-10-05T07:11:57.331Z,10.10
2017-10-05T07:14:25.634Z,10.30
2017-10-05T07:16:53.201Z,10.20
2017-10-05T07:19:20.743Z,10.30
2017-10-05T07:21:48.312Z,10.40
2017-10-05T07:24:15.853Z,10.40
2017-10-05T07:26:43.422Z,10.30
2017-10-05T07:29:10.953Z,10.40
2017-10-05T07:31:38.517Z,10.50
2017-10-05T07:34:06.054Z,10.60
2017-10-05T07:36:34.386Z,10.70
2017-10-05T07:39:01.930Z,10.70
2017-10-05T07:41:29.492Z,10.80
2017-10-05T07:43:57.026Z,11.00
2017-10-05T07:46:24.568Z,11.00
2017-10-05T07:48:52.903Z,11.40
2017-10-05T07:51:20.429Z,11.30
2017-10-05T07:53:47.982Z,11.60
2017-10-05T07:56:15.531Z,11.80
2017-10-05T07:58:43.851Z,11.90
2017-10-05T08:01:11.387Z,11.80
2017-10-05T08:03:38.951Z,11.90
2017-10-05T08:06:06.484Z,11.90
2017-10-05T08:08:34.811Z,11.90
2017-10-05T08:11:02.351Z,11.90
2017-10-05T08:13:29.907Z,12.00
2017-10-05T08:15:57.438Z,12.00
2017-10-05T08:18:25.758Z,12.10
2017-10-05T08:20:53.306Z,12.00
2017-10-05T08:23:20.863Z,12.00
2017-10-05T08:25:48.399Z,11.90
2017-10-05T08:28:16.728Z,11.90
2017-10-05T08:30:44.269Z,11.90
2017-10-05T08:33:11.824Z,12.00
2017-10-05T08:35:39.416Z,12.10
2017-10-05T08:38:06.973Z,12.10
2017-10-05T08:40:34.507Z,12.10
2017-10-05T08:43:02.841Z,12.30
2017-10-05T08:45:30.373Z,12.30
2017-10-05T08:47:57.939Z,12.50
2017-10-05T08:50:25.477Z,12.70
2017-10-05T08:52:53.021Z,12.60
2017-10-05T08:55:20.579Z,12.70
2017-10-05T08:57:48.111Z,12.90
2017-10-05T09:00:16.448Z,13.90
2017-10-05T09:02:43.994Z,13.90
2017-10-05T09:05:11.555Z,14.10
2017-10-05T09:07:39.091Z,14.10
2017-10-05T09:10:06.643Z,14.00
2017-10-05T09:12:34.185Z,14.10
2017-10-05T09:15:02.526Z,14.40
2017-10-05T09:17:30.057Z,14.40
2017-10-05T09:19:57.606Z,14.60
2017-10-05T09:22:25.134Z,14.80
2017-10-05T09:24:53.501Z,14.80
2017-10-05T09:27:21.054Z,14.80
2017-10-05T09:29:48.643Z,14.70
2017-10-05T09:32:16.207Z,14.40
2017-10-05T09:34:44.524Z,14.30
2017-10-05T09:37:12.062Z,14.30
2017-10-05T09:39:39.623Z,15.00
2017-10-05T09:42:07.151Z,15.50
2017-10-05T09:44:34.712Z,15.40
2017-10-05T09:47:02.235Z,15.10
2017-10-05T09:49:29.762Z,15.30
2017-10-05T09:51:57.323Z,15.00
2017-10-05T09:54:24.851Z,14.80
2017-10-05T09:56:53.166Z,14.70
2017-10-05T09:59:20.694Z,14.70
2017-10-05T10:01:49.007Z,14.60
2017-10-05T10:04:16.530Z,14.60
2017-10-05T10:06:44.858Z,14.50
2017-10-05T10:09:12.395Z,14.50
2017-10-05T10:11:39.960Z,14.50
2017-10-05T10:14:07.487Z,14.30
2017-10-05T10:16:35.819Z,14.30
2017-10-05T10:19:03.355Z,14.30
2017-10-05T10:21:31.760Z,14.20
2017-10-05T10:23:59.285Z,14.20
2017-10-05T10:26:26.838Z,14.10
2017-10-05T10:28:54.366Z,14.10
2017-10-05T10:31:21.929Z,14.00
2017-10-05T10:33:49.456Z,14.10
2017-10-05T10:36:17.015Z,14.00
2017-10-05T10:38:44.552Z,13.90
2017-10-05T10:41:12.116Z,13.90
2017-10-05T10:43:39.655Z,13.80
2017-10-05T10:46:07.223Z,13.60
2017-10-05T10:48:34.751Z,13.60
2017-10-05T10:51:02.276Z,13.60
2017-10-05T10:53:29.822Z,13.70
2017-10-05T10:55:57.352Z,13.60
2017-10-05T10:58:24.911Z,13.60
2017-10-05T11:00:52.446Z,13.60
2017-10-05T11:03:19.998Z,13.50
2017-10-05T11:05:47.530Z,13.50
2017-10-05T11:08:15.087Z,13.50
2017-10-05T11:10:42.610Z,13.60
2017-10-05T11:13:10.167Z,13.70
2017-10-05T11:15:38.460Z,13.60
2017-10-05T11:18:06.015Z,13.60
2017-10-05T11:20:33.544Z,13.50
2017-10-05T11:23:01.873Z,13.60
2017-10-05T11:25:29.403Z,13.60
2017-10-05T11:27:56.959Z,13.70
2017-10-05T11:30:24.495Z,13.60
2017-10-05T11:32:52.815Z,13.60
2017-10-05T11:35:20.345Z,13.60
2017-10-05T11:37:48.667Z,13.60
2017-10-05T11:40:16.199Z,13.60
2017-10-05T11:42:43.760Z,13.80
2017-10-05T11:45:11.286Z,13.70
2017-10-05T11:47:38.851Z,13.80
2017-10-05T11:50:07.164Z,13.70
2017-10-05T11:52:34.742Z,13.70
2017-10-05T11:55:02.292Z,13.60
2017-10-05T11:57:29.831Z,13.70
2017-10-05T11:59:57.383Z,13.60
2017-10-05T12:02:25.683Z,13.50
2017-10-05T12:04:53.235Z,13.50
2017-10-05T12:07:20.775Z,13.50
2017-10-05T12:09:49.107Z,13.30
2017-10-05T12:12:16.640Z,13.30
2017-10-05T12:14:44.196Z,13.40
2017-10-05T12:17:11.727Z,13.40
2017-10-05T12:19:40.055Z,13.40
2017-10-05T12:22:07.586Z,13.30
2017-10-05T12:24:35.147Z,13.40
2017-10-05T12:27:02.687Z,13.40
2017-10-05T12:29:31.003Z,13.30
2017-10-05T12:31:58.544Z,13.30
2017-10-05T12:34:26.095Z,13.40
2017-10-05T12:36:53.634Z,13.30
2017-10-05T12:39:21.963Z,13.30
2017-10-05T12:41:49.496Z,13.30
2017-10-05T12:44:17.063Z,13.30
2017-10-05T12:46:44.595Z,13.30
2017-10-05T12:49:12.922Z,13.20
2017-10-05T12:51:40.455Z,13.10
2017-10-05T12:54:08.006Z,13.10
2017-10-05T12:56:36.307Z,12.90
2017-10-05T12:59:03.840Z,12.80
2017-10-05T13:01:32.166Z,12.80
2017-10-05T13:03:59.705Z,12.80
2017-10-05T13:06:27.272Z,12.80
2017-10-05T13:08:54.816Z,12.70
2017-10-05T13:11:22.386Z,12.70
2017-10-05T13:13:49.919Z,12.60
2017-10-05T13:16:17.482Z,12.60
2017-10-05T13:18:45.020Z,12.50
2017-10-05T13:21:13.340Z,12.40
2017-10-05T13:23:40.867Z,12.40
2017-10-05T13:26:09.201Z,12.40
2017-10-05T13:28:36.731Z,12.40
2017-10-05T13:31:04.297Z,12.50
2017-10-05T13:33:31.845Z,12.40
2017-10-05T13:35:59.399Z,12.50
2017-10-05T13:38:26.925Z,12.40
2017-10-05T13:40:54.489Z,12.40
2017-10-05T13:43:22.790Z,12.40
2017-10-05T13:45:50.343Z,12.40
2017-10-05T13:48:18.646Z,12.40
2017-10-05T13:50:46.209Z,12.40
2017-10-05T13:53:13.743Z,12.40
2017-10-05T13:55:42.087Z,12.40
2017-10-05T13:58:09.638Z,12.40
2017-10-05T14:00:37.176Z,12.40
2017-10-05T14:03:04.737Z,12.40
2017-10-05T14:05:32.270Z,12.40
2017-10-05T14:07:59.836Z,12.40
2017-10-05T14:10:27.370Z,12.40
2017-10-05T14:12:55.691Z,12.40
2017-10-05T14:15:23.228Z,12.40
2017-10-05T14:17:50.784Z,12.40
2017-10-05T14:20:18.316Z,12.40
2017-10-05T14:22:45.874Z,12.30
2017-10-05T14:25:13.407Z,12.40
2017-10-05T14:27:40.971Z,12.30
2017-10-05T14:30:08.504Z,12.30
2017-10-05T14:32:36.172Z,12.40
2017-10-05T14:35:03.714Z,12.30
2017-10-05T14:37:31.279Z,12.30
2017-10-05T14:39:58.806Z,12.30
2017-10-05T14:42:27.140Z,12.30
2017-10-05T14:44:54.676Z,12.30
2017-10-05T14:47:22.230Z,12.30
2017-10-05T14:49:49.766Z,12.40
2017-10-05T14:52:18.096Z,12.30
2017-10-05T14:54:45.640Z,12.30
2017-10-05T14:57:13.208Z,12.30
2017-10-05T14:59:40.756Z,12.30
2017-10-05T15:02:08.297Z,12.30
2017-10-05T15:04:35.860Z,12.30
2017-10-05T15:07:03.393Z,12.30
2017-10-05T15:09:31.720Z,12.30
2017-10-05T15:11:59.281Z,12.30
2017-10-05T15:14:26.835Z,12.30
2017-10-05T15:16:54.376Z,12.30
2017-10-05T15:19:21.948Z,12.30
2017-10-05T15:21:49.482Z,12.30
2017-10-05T15:24:17.045Z,12.30
2017-10-05T15:26:45.338Z,12.00
2017-10-05T15:29:12.890Z,12.00
2017-10-05T15:31:40.432Z,11.90
2017-10-05T15:34:08.765Z,11.70
2017-10-05T15:36:36.295Z,11.70
2017-10-05T15:39:03.848Z,11.70
2017-10-05T15:41:31.379Z,11.60
2017-10-05T15:43:58.927Z,11.60
2017-10-05T15:46:26.464Z,11.60
2017-10-05T15:48:54.011Z,11.50
2017-10-05T15:51:21.543Z,11.50
2017-10-05T15:53:49.099Z,11.60
2017-10-05T15:56:17.393Z,11.40
2017-10-05T15:58:44.967Z,11.40
2017-10-05T16:01:12.509Z,11.30
2017-10-05T16:03:40.050Z,11.30
2017-10-05T16:06:08.374Z,11.30
2017-10-05T16:08:35.900Z,11.30
2017-10-05T16:11:03.451Z,11.40
2017-10-05T16:13:30.986Z,11.20
2017-10-05T16:15:58.544Z,11.20
2017-10-05T16:18:26.855Z,11.10
2017-10-05T16:20:54.418Z,11.10
2017-10-05T16:23:21.952Z,11.00
2017-10-05T16:25:50.279Z,11.00
2017-10-05T16:28:17.814Z,11.00
2017-10-05T16:30:45.380Z,10.90
2017-10-05T16:33:12.908Z,10.80
2017-10-05T16:35:41.232Z,10.80
2017-10-05T16:38:08.768Z,10.70
2017-10-05T16:40:36.326Z,10.70
2017-10-05T16:43:03.859Z,10.70
2017-10-05T16:45:31.426Z,10.60
2017-10-05T16:47:59.727Z,10.60
2017-10-05T16:50:27.283Z,10.60
2017-10-05T16:52:54.814Z,10.50
2017-10-05T16:55:23.135Z,10.30
2017-10-05T16:57:50.671Z,10.30
2017-10-05T17:00:19.002Z,10.30
2017-10-05T17:02:46.534Z,10.30
2017-10-05T17:05:14.064Z,10.20
2017-10-05T17:07:42.392Z,10.00
2017-10-05T17:10:09.928Z,10.00
2017-10-05T17:12:37.489Z,10.00
2017-10-05T17:15:05.026Z,10.00
2017-10-05T17:17:33.346Z,10.00
2017-10-05T17:20:00.888Z,10.00
2017-10-05T17:22:28.452Z,9.90
2017-10-05T17:24:55.979Z,9.90
2017-10-05T17:27:24.306Z,9.70
2017-10-05T17:29:51.850Z,9.70
2017-10-05T17:32:19.405Z,9.70
2017-10-05T17:34:46.926Z,9.70
2017-10-05T17:37:15.251Z,9.70
2017-10-05T17:39:42.779Z,9.70
2017-10-05T17:42:10.329Z,9.70
2017-10-05T17:44:38.626Z,9.70
2017-10-05T17:47:06.182Z,9.60
2017-10-05T17:49:33.718Z,9.70
2017-10-05T17:52:02.048Z,9.70
2017-10-05T17:54:29.589Z,9.70
2017-10-05T17:56:57.147Z,9.80
2017-10-05T17:59:24.683Z,9.80
2017-10-05T18:01:53.014Z,9.70
2017-10-05T18:04:20.556Z,9.60
2017-10-05T18:06:48.106Z,9.60
2017-10-05T18:09:15.639Z,9.60
2017-10-05T18:11:43.971Z,9.50
2017-10-05T18:14:11.503Z,9.50
2017-10-05T18:16:39.044Z,9.50
2017-10-05T18:19:06.602Z,9.40
2017-10-05T18:21:34.140Z,9.50
2017-10-05T18:24:01.704Z,9.50
2017-10-05T18:26:30.008Z,9.50
2017-10-05T18:28:57.576Z,9.50
2017-10-05T18:31:25.112Z,9.50
2017-10-05T18:33:53.430Z,9.40
2017-10-05T18:36:20.967Z,9.40
2017-10-05T18:38:48.541Z,9.40
2017-10-05T18:41:16.072Z,9.50
2017-10-05T18:43:44.394Z,9.40
2017-10-05T18:46:11.931Z,9.40
2017-10-05T18:48:39.495Z,9.40
2017-10-05T18:51:07.551Z,9.40
2017-10-05T18:53:35.115Z,9.40
2017-10-05T18:56:02.647Z,9.50
2017-10-05T18:58:30.975Z,9.50
2017-10-05T19:00:58.511Z,9.50
2017-10-05T19:03:26.071Z,9.50
2017-10-05T19:05:53.611Z,9.40
2017-10-05T19:08:21.959Z,9.30
2017-10-05T19:10:49.507Z,9.30
2017-10-05T19:13:17.049Z,9.40
2017-10-05T19:15:44.612Z,9.40
2017-10-05T19:18:12.156Z,9.40
2017-10-05T19:20:39.716Z,9.40
2017-10-05T19:23:07.261Z,9.40
2017-10-05T19:25:34.824Z,9.40
2017-10-05T19:28:02.359Z,9.30
2017-10-05T19:30:30.696Z,9.10
2017-10-05T19:32:58.237Z,9.10
2017-10-05T19:35:25.872Z,9.00
2017-10-05T19:37:54.176Z,8.90
2017-10-05T19:40:21.736Z,8.80
2017-10-05T19:42:49.280Z,8.70
2017-10-05T19:45:17.270Z,8.60
2017-10-05T19:47:44.832Z,8.70
2017-10-05T19:50:12.397Z,8.70
2017-10-05T19:52:39.940Z,8.70
2017-10-05T19:55:08.255Z,8.70
2017-10-05T19:57:35.892Z,8.60
2017-10-05T20:00:03.452Z,8.70
2017-10-05T20:02:30.999Z,8.50
2017-10-05T20:04:58.556Z,8.60
2017-10-05T20:07:26.097Z,8.50
2017-10-05T20:09:54.424Z,8.50
2017-10-05T20:12:21.960Z,8.50
2017-10-05T20:15:05.400Z,8.40
2017-10-05T20:20:48.525Z,8.40
2017-10-05T20:26:34.856Z,8.40
2017-10-05T20:29:02.407Z,8.40
2017-10-05T20:31:35.698Z,8.40
2017-10-05T20:34:03.246Z,8.40
2017-10-05T20:36:31.584Z,8.30
2017-10-05T20:38:59.134Z,8.30
2017-10-05T20:41:26.758Z,8.30
2017-10-05T20:43:55.060Z,8.20
2017-10-05T20:46:23.405Z,8.30
2017-10-05T20:48:51.249Z,8.30
2017-10-05T20:51:19.439Z,8.20
2017-10-05T20:53:47.129Z,8.20
2017-10-05T20:56:14.677Z,8.20
2017-10-05T20:58:42.243Z,8.10
2017-10-05T21:01:09.789Z,8.10
2017-10-05T21:03:37.517Z,8.10
2017-10-05T21:06:05.059Z,8.20
2017-10-05T21:08:33.228Z,8.10
2017-10-05T21:11:00.901Z,8.20
2017-10-05T21:13:28.662Z,8.20
2017-10-05T21:15:56.203Z,8.10
2017-10-05T21:18:23.775Z,8.10
2017-10-05T21:20:51.324Z,8.10
2017-10-05T21:23:18.888Z,8.10
2017-10-05T21:25:46.426Z,8.20
2017-10-05T21:28:14.000Z,8.20
2017-10-05T21:30:41.548Z,8.20
2017-10-05T21:33:09.119Z,8.20
2017-10-05T21:35:36.668Z,8.10
2017-10-05T21:38:04.239Z,8.10
2017-10-05T21:40:31.785Z,8.00
2017-10-05T21:42:59.358Z,8.00
2017-10-05T21:45:27.660Z,7.90
2017-10-05T21:47:55.224Z,7.90
2017-10-05T21:50:22.772Z,7.90
2017-10-05T21:52:50.341Z,7.90
2017-10-05T21:55:17.885Z,7.90
2017-10-05T21:57:45.422Z,7.90
2017-10-05T22:00:12.990Z,7.80
2017-10-05T22:02:40.536Z,7.80
2017-10-05T22:05:08.104Z,7.70
2017-10-05T22:07:35.644Z,7.80
2017-10-05T22:10:03.208Z,7.70
2017-10-05T22:12:30.774Z,7.60
2017-10-05T22:14:58.340Z,7.60
2017-10-05T22:17:25.885Z,7.60
2017-10-05T22:19:53.454Z,7.60
2017-10-05T22:22:21.015Z,7.50
2017-10-05T22:24:48.582Z,7.60
2017-10-05T22:27:16.120Z,7.50
2017-10-05T22:29:44.439Z,7.60
2017-10-05T22:52:04.056Z,7.20
2017-10-05T22:54:31.616Z,7.20
2017-10-05T22:56:59.164Z,7.20
2017-10-05T22:59:26.701Z,7.20
2017-10-05T23:02:00.020Z,7.20
2017-10-05T23:04:27.560Z,7.20
2017-10-05T23:06:55.120Z,7.10
2017-10-05T23:09:22.661Z,7.00
2017-10-05T23:11:50.991Z,6.90
2017-10-05T23:14:18.536Z,6.90
2017-10-05T23:19:39.966Z,6.80
2017-10-05T23:22:07.529Z,6.80
2017-10-05T23:24:35.077Z,6.80
2017-10-05T23:27:02.636Z,6.90
2017-10-05T23:29:30.193Z,6.80
2017-10-05T23:31:57.752Z,6.80
2017-10-05T23:34:25.300Z,6.70
2017-10-05T23:36:52.863Z,6.70
2017-10-05T23:39:20.407Z,6.60
2017-10-05T23:41:48.727Z,6.60
2017-10-05T23:44:16.295Z,6.60
2017-10-05T23:46:43.853Z,6.60
2017-10-05T23:49:11.389Z,6.60
2017-10-05T23:51:38.956Z,6.70
2017-10-05T23:54:06.497Z,6.90
2017-10-05T23:56:34.067Z,7.00
2017-10-05T23:59:01.603Z,7.00
